Flight Track Log - Related Links

Times and Time Zones

All times are in EDT time to prevent confusion due to time zone crossing. See the KAP46 flight status page for this flight to view local times or setup timezone preferences in your user account.

Time Position Orientation Groundspeed Altitude Reporting Facility
EDT Latitude Longitude Course Direction KTS MPH feet Rate Location/Type
Thu 06:37:00 PM 42.9196 -73.8804 341° North  Level Estimated
Thu 06:38:00 PM 42.9439 -73.8917 341° North  Level Estimated
Thu 06:39:00 PM 42.9683 -73.9029 341° North  Level Estimated
Thu 06:40:00 PM 42.9926 -73.9142 341° North  Level Estimated
Thu 06:41:00 PM 43.0170 -73.9255 341° North  Level Estimated
Thu 06:42:00 PM 43.0413 -73.9367 341° North  Level Estimated
Thu 06:43:00 PM 43.0657 -73.9480 341° North  Level Estimated
Thu 06:43:01 PM 43.0014 -74.0753 315° West 152 175 8,000  Level Boston Center
Thu 06:44:00 PM 43.0900 -73.9593 341° North  Level Estimated
Thu 06:44:26 PM 43.0636 -74.0942 347° North 186 214 8,000  Level Boston Center
Thu 06:45:00 PM 43.1143 -73.9706 341° North  Level Estimated
Thu 06:45:27 PM 43.1050 -74.1150 340° North 174 200 8,000  Level Boston Center
Thu 06:46:00 PM 43.1387 -73.9819 341° North  Level Estimated
Thu 06:46:24 PM 43.1569 -74.1364 343° North 169 194 8,000  Level Boston Center
Thu 06:47:00 PM 43.1630 -73.9933 341° North  Level Estimated
Thu 06:47:26 PM 43.1983 -74.1519 345° North 163 188 8,100  Level Boston Center
Thu 06:48:00 PM 43.1885 -74.0285 315° West  Level FlightAware Approximate
Thu 06:48:27 PM 43.2458 -74.1703 344° North 163 188 8,000  Level Boston Center
Thu 06:49:37 PM 43.2853 -74.1886 341° North 163 188 8,000  Level Boston Center
Thu 06:50:37 PM 43.3411 -74.2100 344° North 163 188 8,000 50 Level Boston Center
Thu 06:51:37 PM 43.3847 -74.2286 343° North 168 193 8,100 50 Climbing Boston Center
Thu 06:52:38 PM 43.4283 -74.2442 345° North 168 193 8,100 -50 Level Boston Center
Thu 06:53:37 PM 43.4697 -74.2597 345° North 163 188 8,000 -50 Descending Boston Center
Thu 06:54:37 PM 43.5131 -74.2753 345° North 163 188 8,000  Level Boston Center
Thu 06:55:39 PM 43.5567 -74.2936 343° North 163 188 8,000  Level Boston Center
Thu 06:56:39 PM 43.6000 -74.3094 345° North 163 188 8,000  Level Boston Center
Thu 06:57:37 PM 43.6436 -74.3250 346° North 163 188 8,000  Level Boston Center
Thu 06:58:37 PM 43.6869 -74.3436 343° North 163 188 8,000  Level Boston Center
Thu 06:59:39 PM 43.7306 -74.3622 343° North 163 188 8,000  Level Boston Center
Thu 07:00:37 PM 43.7761 -74.3811 343° North 163 188 8,000 50 Level Boston Center
Thu 07:01:38 PM 43.8217 -74.3997 344° North 163 188 8,100  Climbing Boston Center
Thu 07:02:39 PM 43.8650 -74.4156 345° North 163 188 8,000  Descending Boston Center
Thu 07:03:37 PM 43.9086 -74.4314 345° North 163 188 8,100  Climbing Boston Center
Thu 07:04:37 PM 43.9519 -74.4503 343° North 163 188 8,000 -49 Descending Boston Center
Thu 07:05:39 PM 43.9956 -74.4631 348° North 163 188 8,000  Level Boston Center
Thu 07:06:39 PM 44.0389 -74.4819 343° North 163 188 8,000  Level Boston Center
Thu 07:07:39 PM 44.0844 -74.5036 341° North 163 188 8,000 51 Level Boston Center
Thu 07:08:37 PM 44.1281 -74.5169 348° North 163 188 8,100  Climbing Boston Center
Thu 07:09:38 PM 44.1714 -74.5356 343° North 163 188 8,000 -50 Descending Boston Center
Thu 07:10:38 PM 44.2189 -74.5519 346° North 163 188 8,000 -248 Level Boston Center
Thu 07:11:39 PM 44.2644 -74.5739 341° North 163 188 7,500 -504 Descending Boston Center
Thu 07:12:37 PM 44.3183 -74.5961 344° North 174 200 7,000 -508 Descending Boston Center
Thu 07:13:37 PM 44.3678 -74.6153 345° North 179 206 6,500 -496 Descending Boston Center
Thu 07:14:38 PM 44.4175 -74.6375 342° North 184 212 6,000 -545 Descending Boston Center
Thu 07:15:38 PM 44.4672 -74.6567 345° North 184 212 5,400 -446 Descending Boston Center
Thu 07:16:39 PM 44.5169 -74.6672 351° North 184 212 5,100 -295 Descending Boston Center

Login

Don't have an account? Register now (free) for customized features, flight alerts, and more!